Alma, CO

12:01 PM MDT on October 21, 2014 (GMT -0600)
Valley of the Sun | Change Station
CLOSE
Current Station
Personal Weather Station
Location: Fairplay, CO
Elevation: 11000 ft
Nearby Weather Stations

Elev 11000 ft 39.24 °N, 106.11 °W | Updated 44 seconds ago

Overcast
Overcast
45.7 °F
Feels Like 46 °F
N
1.0
Wind Variable Wind from WSW
Gusts 12.0 mph

Today
High -- | Low -- °F
--% Chance of Precip.
Yesterday
High -- | Low -- °F
Precip. -- in
7:20 AM 6:16 PM
Waning Crescent, 5% visible
Pressure 30.38 in
Visibility 10.0 miles
Clouds Mostly Cloudy 3200 ft
Mostly Cloudy 3800 ft
Overcast 4800 ft
Windchill 46 °F
Dew Point 29 °F
Humidity 51%
Rainfall 0.00 in
Snow Depth 0 in , 0 in , 0 in
UV 2 out of 12
Pollen 3.00 out of 12
Air Quality Not available.
Flu Activity Sporadic
METAR KCCU 211757Z AUTO 18010KT 10SM BKN032 BKN038 OVC048 07/M03 A3038 RMK AO2

More Conditions Fewer Conditions

Pressure 30.38 in
Visibility 10.0 miles
Clouds Mostly Cloudy 3200 ft
Mostly Cloudy 3800 ft
Overcast 4800 ft
Windchill 46 °F
Dew Point 29 °F
Humidity 51%
Rainfall 0.00 in
Snow Depth 0 in , 0 in , 0 in
UV 2 out of 12
Pollen 3.00 out of 12
Air Quality Not available.
Flu Activity Sporadic
METAR KCCU 211757Z AUTO 18010KT 10SM BKN032 BKN038 OVC048 07/M03 A3038 RMK AO2

More Conditions Fewer Conditions

10-Day Weather Forecast

Almanac

Astronomy

Oct. 21, 2014 Rise Set
Actual Time 7:20 AM MDT 6:16 PM MDT
Civil Twilight 6:53 AM MDT 6:44 PM MDT
Nautical Twilight 6:21 AM MDT 7:15 PM MDT
Astronomical Twilight 5:50 AM MDT 7:46 PM MDT
Moon 5:07 AM MDT 5:11 PM MDT
Length of Visible Light 11h 50m
Length of Day
10h 56m
Tomorrow will be 2m 24s shorter.
Waning Crescent, 5% of the Moon is Illuminated
Today
Waning Crescent
Oct 23
New
Oct 30
First Quarter
Nov 6
Full
Nov 14
Last Quarter

Today's Extremes

State Highs State Lows

Community

WunderPhotos

Upload Photos

1,763,737 photos uploaded!

Nearby

Snow Depth

Station Depth Elevation
Hoosier Pass 0 in 11400 ft
Fremont Pass 0 in 11400 ft
Michigan Creek 0 in 10600 ft
Rough And Tumble 0 in 10360 ft
Jackwhacker Gulch 0 in 10960 ft

Earthquake Activity

City Distance Mag. Time & Date
No recent earthquake activity has been reported nearby.
Minimum magnitude displayed is 2.5.

Coastal Water Temperatures

Place Temperature
No Stations Reporting

Nearby Weather Stations